Time;durP1;ratioP1;P1;durP2;ratioP2;P2;SDS_P1;SDS_P2;PMS_P1;PMS_P2;Temp;Humidity;BMP_temperature;BMP_pressure;BME280_temperature;BME280_humidity;BME280_pressure;Samples;Min_cycle;Max_cycle;Signal;HPM_P1;HPM_P2
2022/03/03 00:01:42;;;;;;;18.00;13.80;;;0.50;99.90;;;;;;6132266;23;20499;-85
2022/03/03 00:04:08;;;;;;;19.60;13.83;;;0.50;99.90;;;;;;6130904;23;20784;-85
2022/03/03 00:06:34;;;;;;;28.27;15.93;;;0.50;99.90;;;;;;6130187;23;20992;-85
2022/03/03 00:09:00;;;;;;;22.93;14.53;;;0.60;99.90;;;;;;6133717;23;20160;-84
2022/03/03 00:11:26;;;;;;;20.47;14.13;;;0.60;99.90;;;;;;6139892;23;20396;-84
2022/03/03 00:13:52;;;;;;;22.80;15.37;;;0.60;99.90;;;;;;6136698;23;20388;-85
2022/03/03 00:16:18;;;;;;;22.43;15.50;;;0.60;99.90;;;;;;6128909;23;20203;-84
2022/03/03 00:18:43;;;;;;;23.67;14.80;;;0.70;99.90;;;;;;6127569;23;20167;-84
2022/03/03 00:21:09;;;;;;;20.10;13.73;;;0.60;99.90;;;;;;6128518;23;20167;-83
2022/03/03 00:23:34;;;;;;;20.10;13.83;;;0.60;99.90;;;;;;6128620;23;20619;-83
2022/03/03 00:26:01;;;;;;;17.10;13.70;;;0.50;99.90;;;;;;6130465;23;20157;-83
2022/03/03 00:28:27;;;;;;;23.70;14.10;;;0.50;99.90;;;;;;6133174;23;20160;-84
2022/03/03 00:30:53;;;;;;;21.20;14.60;;;0.30;99.90;;;;;;6131826;23;21007;-84
2022/03/03 00:33:19;;;;;;;19.37;14.10;;;0.30;99.90;;;;;;6129838;23;20279;-84
2022/03/03 00:35:45;;;;;;;21.43;13.60;;;0.40;99.90;;;;;;6134395;23;20782;-84
2022/03/03 00:38:11;;;;;;;21.07;14.47;;;0.40;99.90;;;;;;6131125;23;20470;-85
2022/03/03 00:40:50;;;;;;;18.40;13.67;;;0.50;99.90;;;;;;6130138;23;20612;-85
2022/03/03 00:43:15;;;;;;;24.43;13.17;;;0.40;99.90;;;;;;6130369;23;20540;-84
2022/03/03 00:45:41;;;;;;;22.00;13.83;;;0.40;99.90;;;;;;6130903;23;20692;-84
2022/03/03 00:48:07;;;;;;;17.83;13.37;;;0.40;99.90;;;;;;6134205;23;20255;-85
2022/03/03 00:50:33;;;;;;;22.90;14.73;;;0.30;99.90;;;;;;6129492;23;20405;-84
2022/03/03 00:52:59;;;;;;;20.97;13.87;;;0.40;99.90;;;;;;6128575;23;20738;-84
2022/03/03 00:55:25;;;;;;;21.10;14.67;;;0.40;99.90;;;;;;6137944;23;20384;-84
2022/03/03 00:57:51;;;;;;;22.13;14.73;;;0.40;99.90;;;;;;6138586;23;20744;-84
2022/03/03 01:00:18;;;;;;;18.93;13.90;;;0.30;99.90;;;;;;6129073;23;20160;-84
2022/03/03 01:02:47;;;;;;;18.73;12.87;;;0.20;99.90;;;;;;6132670;23;20428;-84
2022/03/03 01:05:16;;;;;;;19.57;13.73;;;0.10;99.90;;;;;;6128961;23;20834;-84
2022/03/03 01:07:42;;;;;;;20.40;13.93;;;0.10;99.90;;;;;;6132621;23;20727;-84
2022/03/03 01:10:08;;;;;;;19.23;12.93;;;0.10;99.90;;;;;;6139307;23;20379;-83
2022/03/03 01:12:34;;;;;;;22.30;14.03;;;0.10;99.90;;;;;;6140108;23;20156;-84
2022/03/03 01:15:00;;;;;;;21.80;13.00;;;0.00;99.90;;;;;;6133050;23;20392;-84
2022/03/03 01:17:26;;;;;;;19.80;12.60;;;0.00;99.90;;;;;;6130929;23;20440;-84
2022/03/03 01:19:51;;;;;;;19.33;12.10;;;-0.10;99.90;;;;;;6130442;23;20415;-84
2022/03/03 01:22:17;;;;;;;20.97;13.47;;;-0.10;99.90;;;;;;6129559;23;20167;-84
2022/03/03 01:24:45;;;;;;;17.87;12.57;;;-0.10;99.90;;;;;;6133969;23;20199;-83
2022/03/03 01:27:10;;;;;;;16.23;12.27;;;-0.20;99.90;;;;;;6130333;23;20164;-83
2022/03/03 01:29:36;;;;;;;20.03;12.90;;;-0.30;99.90;;;;;;6131357;23;20419;-83
2022/03/03 01:32:02;;;;;;;18.17;13.03;;;-0.30;99.90;;;;;;6130966;23;20196;-83
2022/03/03 01:34:29;;;;;;;17.33;12.03;;;-0.30;99.90;;;;;;6136745;23;20532;-83
2022/03/03 01:36:54;;;;;;;18.03;12.37;;;-0.30;99.90;;;;;;6131647;23;20447;-83
2022/03/03 01:39:20;;;;;;;16.77;11.83;;;-0.30;99.90;;;;;;6129654;23;20396;-83
2022/03/03 01:41:45;;;;;;;18.50;11.83;;;-0.30;99.90;;;;;;6132202;23;20207;-83
2022/03/03 01:44:11;;;;;;;16.40;11.40;;;-0.30;99.90;;;;;;6130336;23;20214;-84
2022/03/03 01:46:50;;;;;;;17.63;12.47;;;-0.30;99.90;;;;;;6132262;23;20153;-83
2022/03/03 01:49:16;;;;;;;18.00;12.30;;;-0.40;99.90;;;;;;6135359;23;20623;-83
2022/03/03 01:51:41;;;;;;;18.40;12.30;;;-0.40;99.90;;;;;;6134123;23;20382;-83
2022/03/03 01:54:09;;;;;;;21.70;13.43;;;-0.40;99.90;;;;;;6128806;23;20712;-84
2022/03/03 01:56:35;;;;;;;16.67;12.00;;;-0.40;99.90;;;;;;6130169;23;20609;-83
2022/03/03 01:59:02;;;;;;;18.60;11.03;;;-0.30;99.90;;;;;;6127232;23;20419;-83
2022/03/03 02:01:30;;;;;;;19.60;12.57;;;-0.20;99.90;;;;;;6126923;23;20396;-83
2022/03/03 02:03:55;;;;;;;24.30;12.13;;;-0.30;99.90;;;;;;6129472;23;20388;-83
2022/03/03 02:06:21;;;;;;;18.37;13.93;;;-0.30;99.90;;;;;;6129666;23;20795;-84
2022/03/03 02:08:46;;;;;;;19.67;13.20;;;-0.30;99.90;;;;;;6132396;23;20849;-83
2022/03/03 02:11:12;;;;;;;16.80;12.30;;;-0.20;99.90;;;;;;6131839;23;20160;-83
2022/03/03 02:13:38;;;;;;;19.30;11.90;;;-0.20;99.90;;;;;;6128494;23;20576;-83
2022/03/03 02:16:08;;;;;;;19.80;12.90;;;-0.30;99.90;;;;;;6131146;23;20503;-83
2022/03/03 02:18:40;;;;;;;19.50;12.90;;;-0.30;99.90;;;;;;6129791;23;20164;-83
2022/03/03 02:21:20;;;;;;;16.27;12.33;;;-0.30;99.90;;;;;;6128588;23;20388;-83
2022/03/03 02:23:45;;;;;;;16.50;12.87;;;-0.30;99.90;;;;;;6128217;23;20489;-83
2022/03/03 02:26:18;;;;;;;18.43;12.43;;;-0.20;99.90;;;;;;6129192;23;20761;-82
2022/03/03 02:28:45;;;;;;;20.90;14.40;;;-0.10;99.90;;;;;;6131739;23;20175;-85
2022/03/03 02:31:10;;;;;;;16.73;11.97;;;-0.20;99.90;;;;;;6132440;23;20407;-82
2022/03/03 02:33:36;;;;;;;13.90;12.40;;;-0.20;99.90;;;;;;6130406;23;21149;-85
2022/03/03 02:36:22;;;;;;;16.60;11.80;;;-0.30;99.90;;;;;;6131745;23;20156;-85
2022/03/03 02:38:51;;;;;;;15.97;11.80;;;-0.50;99.90;;;;;;6132483;23;20316;-85
2022/03/03 02:41:16;;;;;;;16.93;12.40;;;-0.50;99.90;;;;;;6130712;23;20380;-84
2022/03/03 02:43:43;;;;;;;17.90;13.50;;;-0.50;99.90;;;;;;6133622;23;20399;-84
2022/03/03 02:46:10;;;;;;;18.33;12.53;;;-0.60;99.90;;;;;;6131908;23;21087;-84
2022/03/03 02:48:35;;;;;;;22.27;13.30;;;-0.70;99.90;;;;;;6133631;23;20442;-84
2022/03/03 02:51:02;;;;;;;16.90;13.20;;;-0.70;99.90;;;;;;6132105;23;20391;-83
2022/03/03 02:53:28;;;;;;;18.00;12.27;;;-0.80;99.90;;;;;;6131215;23;20380;-84
2022/03/03 02:55:54;;;;;;;17.83;12.30;;;-0.80;99.90;;;;;;6137427;23;20548;-84
2022/03/03 02:58:20;;;;;;;20.50;13.33;;;-0.90;99.90;;;;;;6134906;23;20175;-84
2022/03/03 03:00:47;;;;;;;19.20;13.30;;;-1.00;99.90;;;;;;6129163;23;20823;-84
2022/03/03 03:03:13;;;;;;;20.40;13.03;;;-0.90;99.90;;;;;;6130065;23;20625;-84
2022/03/03 03:05:40;;;;;;;16.87;12.27;;;-0.90;99.90;;;;;;6128286;23;20394;-84
2022/03/03 03:08:05;;;;;;;16.07;12.07;;;-0.90;99.90;;;;;;6129203;23;20443;-84
2022/03/03 03:10:31;;;;;;;17.67;12.50;;;-0.80;99.90;;;;;;6130346;23;20894;-84
2022/03/03 03:12:57;;;;;;;23.03;12.60;;;-0.80;99.90;;;;;;6130047;23;20368;-84
2022/03/03 03:15:23;;;;;;;18.60;13.07;;;-0.70;99.90;;;;;;6128417;23;20564;-84
2022/03/03 03:17:49;;;;;;;19.60;13.53;;;-0.70;99.90;;;;;;6126414;23;20435;-84
2022/03/03 03:20:15;;;;;;;20.20;12.50;;;-0.70;99.90;;;;;;6131110;23;20511;-84
2022/03/03 03:22:41;;;;;;;21.80;14.10;;;-0.70;99.90;;;;;;6130907;23;20498;-85
2022/03/03 03:25:09;;;;;;;18.73;13.87;;;-0.70;99.90;;;;;;6132678;23;20517;-85
2022/03/03 03:27:36;;;;;;;21.97;13.50;;;-0.60;99.90;;;;;;6128769;23;20972;-85
2022/03/03 03:30:02;;;;;;;17.70;13.10;;;-0.60;99.90;;;;;;6128780;23;20728;-84
2022/03/03 03:32:28;;;;;;;20.07;13.13;;;-0.70;99.90;;;;;;6128129;23;20383;-85
2022/03/03 03:34:53;;;;;;;17.67;13.17;;;-0.60;99.90;;;;;;6130117;23;20509;-85
2022/03/03 03:37:19;;;;;;;18.33;13.60;;;-0.60;99.90;;;;;;6133398;23;20196;-85
2022/03/03 03:39:45;;;;;;;23.20;13.93;;;-0.70;99.90;;;;;;6141087;23;20164;-83
2022/03/03 03:42:10;;;;;;;26.63;14.17;;;-0.70;99.90;;;;;;6137737;23;20218;-85
2022/03/03 03:44:38;;;;;;;24.57;14.27;;;-0.70;99.90;;;;;;6134115;23;20171;-84
2022/03/03 03:47:03;;;;;;;20.00;13.37;;;-0.60;99.90;;;;;;6131212;23;20398;-84
2022/03/03 03:49:29;;;;;;;23.47;13.33;;;-0.60;99.90;;;;;;6132529;23;20387;-84
2022/03/03 03:51:55;;;;;;;20.73;13.80;;;-0.70;99.90;;;;;;6131912;23;20415;-85
2022/03/03 03:54:20;;;;;;;18.40;13.10;;;-0.70;99.90;;;;;;6131402;23;20723;-84
2022/03/03 03:56:46;;;;;;;19.03;13.20;;;-0.80;99.90;;;;;;6130092;23;20295;-84
2022/03/03 03:59:11;;;;;;;19.03;12.90;;;-0.90;99.90;;;;;;6126371;23;20484;-85
2022/03/03 04:01:37;;;;;;;21.13;13.07;;;-1.00;99.90;;;;;;6129710;23;20356;-85
2022/03/03 04:04:03;;;;;;;18.70;13.53;;;-1.10;99.90;;;;;;6130477;23;20157;-85
2022/03/03 04:06:28;;;;;;;21.03;13.50;;;-1.20;99.90;;;;;;6131504;23;20507;-85
2022/03/03 04:08:54;;;;;;;18.83;12.27;;;-1.10;99.90;;;;;;6158721;23;20180;-85
2022/03/03 04:11:20;;;;;;;18.47;12.73;;;-1.10;99.90;;;;;;6129823;23;20422;-85
2022/03/03 04:13:45;;;;;;;16.67;12.43;;;-1.00;99.90;;;;;;6130004;23;20165;-84
2022/03/03 04:16:11;;;;;;;18.57;11.50;;;-1.00;99.90;;;;;;6128153;23;20160;-85
2022/03/03 04:18:36;;;;;;;16.30;12.07;;;-1.00;99.90;;;;;;6127939;23;20608;-84
2022/03/03 04:21:05;;;;;;;17.77;13.00;;;-1.10;99.90;;;;;;6131198;23;20595;-84
2022/03/03 04:23:30;;;;;;;15.27;12.20;;;-1.10;99.90;;;;;;6127959;23;20176;-84
2022/03/03 04:25:56;;;;;;;20.33;12.67;;;-1.20;99.90;;;;;;6125422;23;20454;-84
2022/03/03 04:28:21;;;;;;;17.93;12.20;;;-1.20;99.90;;;;;;6132861;23;20273;-84
2022/03/03 04:30:48;;;;;;;20.07;13.13;;;-1.10;99.90;;;;;;6126509;23;20240;-84
2022/03/03 04:33:14;;;;;;;17.80;12.48;;;-1.20;99.90;;;;;;6123632;23;20180;-84
2022/03/03 04:35:40;;;;;;;21.50;13.20;;;-1.20;99.90;;;;;;6129920;23;20582;-84
2022/03/03 04:38:05;;;;;;;17.67;13.27;;;-1.20;99.90;;;;;;6129099;23;20443;-83
2022/03/03 04:40:31;;;;;;;20.03;13.83;;;-1.30;99.90;;;;;;6134453;23;20160;-84
2022/03/03 04:42:56;;;;;;;21.47;14.13;;;-1.20;99.90;;;;;;6130630;23;20160;-84
2022/03/03 04:45:23;;;;;;;20.30;13.23;;;-1.30;99.90;;;;;;6133049;23;20483;-84
2022/03/03 04:47:48;;;;;;;24.23;14.65;;;-1.40;99.90;;;;;;6132188;23;20511;-84
2022/03/03 04:50:14;;;;;;;19.80;13.47;;;-1.40;99.90;;;;;;6130262;23;20242;-84
2022/03/03 04:52:40;;;;;;;20.50;13.37;;;-1.40;99.90;;;;;;6129729;23;20243;-84
2022/03/03 04:55:06;;;;;;;19.73;12.17;;;-1.50;99.90;;;;;;6132162;23;20435;-84
2022/03/03 04:57:32;;;;;;;18.87;13.50;;;-1.50;99.90;;;;;;6131566;23;20443;-84
2022/03/03 04:59:58;;;;;;;21.80;14.30;;;-1.50;99.90;;;;;;6133356;23;20392;-84
2022/03/03 05:02:24;;;;;;;21.43;13.30;;;-1.50;99.90;;;;;;6135302;23;20396;-85
2022/03/03 05:04:49;;;;;;;23.60;13.73;;;-1.60;99.90;;;;;;6130062;23;20583;-85
2022/03/03 05:07:15;;;;;;;21.57;14.00;;;-1.50;99.90;;;;;;6130822;23;20350;-84
2022/03/03 05:09:40;;;;;;;21.80;13.67;;;-1.50;99.90;;;;;;6127468;23;20259;-85
2022/03/03 05:12:07;;;;;;;20.63;13.00;;;-1.50;99.90;;;;;;6131262;23;20164;-84
2022/03/03 05:14:35;;;;;;;23.58;14.05;;;-1.50;99.90;;;;;;6125955;23;20152;-84
2022/03/03 05:17:00;;;;;;;22.40;14.80;;;-1.50;99.90;;;;;;6131846;23;20185;-83
2022/03/03 05:19:26;;;;;;;24.70;14.60;;;-1.50;99.90;;;;;;6127782;23;20394;-84
2022/03/03 05:21:51;;;;;;;22.63;15.07;;;-1.40;99.90;;;;;;6129536;23;20575;-86
2022/03/03 05:24:19;;;;;;;22.37;14.20;;;-1.50;99.90;;;;;;6125302;23;20167;-85
2022/03/03 05:26:48;;;;;;;23.52;15.65;;;-1.50;99.90;;;;;;6131882;23;20176;-85
2022/03/03 05:29:16;;;;;;;27.92;14.55;;;-1.50;99.90;;;;;;6127305;23;20239;-85
2022/03/03 05:31:41;;;;;;;22.60;14.33;;;-1.50;99.90;;;;;;6128047;23;20186;-86
2022/03/03 05:34:08;;;;;;;22.07;14.20;;;-1.50;99.90;;;;;;6128825;23;20215;-86
2022/03/03 05:36:41;;;;;;;25.08;15.02;;;-1.50;99.90;;;;;;6132105;23;20214;-85
2022/03/03 05:39:07;;;;;;;22.95;15.50;;;-1.50;99.90;;;;;;6132251;23;20249;-86
2022/03/03 05:41:34;;;;;;;26.45;15.40;;;-1.50;99.90;;;;;;6131360;23;20161;-86
2022/03/03 05:44:00;;;;;;;20.95;14.18;;;-1.60;99.90;;;;;;6132252;23;20165;-87
2022/03/03 05:46:27;;;;;;;22.60;14.30;;;-1.60;99.90;;;;;;6137723;23;20163;-86
2022/03/03 05:49:02;;;;;;;23.85;14.52;;;-1.60;99.90;;;;;;6140262;23;20803;-86
2022/03/03 05:51:28;;;;;;;23.50;14.30;;;-1.50;99.90;;;;;;6127562;23;20156;-87
2022/03/03 05:53:53;;;;;;;21.90;13.63;;;-1.60;99.90;;;;;;6126708;23;20175;-86
2022/03/03 05:56:22;;;;;;;22.40;14.00;;;-1.60;99.90;;;;;;6130191;23;20283;-85
2022/03/03 05:58:50;;;;;;;20.15;13.27;;;-1.60;99.90;;;;;;6131092;23;20160;-86
2022/03/03 06:01:16;;;;;;;23.05;13.20;;;-1.60;99.90;;;;;;6128996;23;20267;-87
2022/03/03 06:03:45;;;;;;;23.45;14.68;;;-1.60;99.90;;;;;;6130799;23;20160;-87
2022/03/03 06:06:21;;;;;;;21.63;13.02;;;-1.70;99.90;;;;;;6131137;23;20178;-86
2022/03/03 06:09:01;;;;;;;21.98;13.93;;;-1.80;99.90;;;;;;6128346;23;20164;-86
2022/03/03 06:11:28;;;;;;;21.10;12.88;;;-1.70;99.90;;;;;;6128100;23;20255;-87
2022/03/03 06:14:04;;;;;;;19.88;13.40;;;-1.70;99.90;;;;;;6130039;23;20251;-85
2022/03/03 06:16:51;;;;;;;19.58;12.32;;;-1.70;99.90;;;;;;6108324;23;20510;-86
2022/03/03 06:19:19;;;;;;;25.97;16.07;;;-1.60;99.90;;;;;;6136320;23;20152;-88
2022/03/03 06:21:45;;;;;;;23.75;14.57;;;-1.60;99.90;;;;;;6132391;23;20691;-88
2022/03/03 06:24:11;;;;;;;19.47;12.83;;;-1.50;99.90;;;;;;6132090;23;20251;-88
2022/03/03 06:26:37;;;;;;;20.57;14.10;;;-1.50;99.90;;;;;;6135440;23;20156;-88
2022/03/03 06:29:04;;;;;;;20.13;13.30;;;-1.60;99.90;;;;;;6133945;23;21127;-88
2022/03/03 06:31:29;;;;;;;26.05;13.85;;;-1.60;99.90;;;;;;6132789;23;20164;-88
2022/03/03 06:33:59;;;;;;;24.93;14.97;;;-1.60;99.90;;;;;;6131925;23;20173;-88
2022/03/03 06:36:25;;;;;;;21.53;13.80;;;-1.60;99.90;;;;;;6129870;23;20502;-88
2022/03/03 06:38:59;;;;;;;18.77;13.03;;;-1.60;99.90;;;;;;6130714;23;20771;-88
2022/03/03 06:41:26;;;;;;;26.40;14.73;;;-1.50;99.90;;;;;;6133615;23;20151;-88
2022/03/03 06:43:54;;;;;;;23.85;15.38;;;-1.30;99.90;;;;;;6131551;23;20167;-88
2022/03/03 06:46:21;;;;;;;20.90;14.40;;;-1.40;99.90;;;;;;6134197;23;20226;-87
2022/03/03 06:48:47;;;;;;;21.40;14.70;;;-1.20;99.90;;;;;;6131871;23;20195;-88
2022/03/03 06:51:45;;;;;;;21.90;13.63;;;-1.20;99.90;;;;;;6131529;23;20271;-87
2022/03/03 06:54:26;;;;;;;25.08;13.93;;;-1.10;99.90;;;;;;6133120;23;20210;-89
2022/03/03 06:57:09;;;;;;;20.65;13.40;;;-1.00;99.90;;;;;;6133425;23;20184;-88
2022/03/03 06:59:39;;;;;;;20.23;13.65;;;-1.10;99.90;;;;;;6131857;23;20350;-88
2022/03/03 07:02:05;;;;;;;23.08;14.75;;;-1.20;99.90;;;;;;6135337;23;20164;-87
2022/03/03 07:04:33;;;;;;;28.37;16.50;;;-1.20;99.90;;;;;;6131791;23;20167;-88
2022/03/03 07:07:00;;;;;;;21.55;13.88;;;-1.30;99.90;;;;;;6131869;23;20356;-88
2022/03/03 07:09:25;;;;;;;23.23;15.93;;;-1.20;99.90;;;;;;6133451;23;20591;-89
2022/03/03 07:11:54;;;;;;;24.27;14.77;;;-1.20;99.90;;;;;;6135587;23;20434;-87
2022/03/03 07:14:23;;;;;;;23.65;14.27;;;-1.30;99.90;;;;;;6135683;23;20227;-87
2022/03/03 07:17:05;;;;;;;25.23;15.20;;;-1.20;99.90;;;;;;6134819;23;20188;-87
2022/03/03 07:19:37;;;;;;;23.05;15.32;;;-1.20;99.90;;;;;;6134826;23;20391;-88
2022/03/03 07:22:09;;;;;;;22.13;14.30;;;-1.10;99.90;;;;;;6134364;23;20164;-87
2022/03/03 07:24:46;;;;;;;24.17;15.73;;;-1.00;99.90;;;;;;6131717;23;20790;-87
2022/03/03 07:27:24;;;;;;;24.03;16.40;;;-0.90;99.90;;;;;;6132739;23;20160;-87
2022/03/03 07:30:15;;;;;;;30.83;15.73;;;-0.90;99.90;;;;;;6133495;23;20466;-87
2022/03/03 07:32:46;;;;;;;23.27;14.90;;;-0.90;99.90;;;;;;6134762;23;20148;-88
2022/03/03 07:35:14;;;;;;;25.80;16.30;;;-0.70;99.90;;;;;;6134743;23;20170;-88
2022/03/03 07:38:05;;;;;;;27.00;16.80;;;-0.40;99.90;;;;;;6136393;23;20582;-88
2022/03/03 07:40:34;;;;;;;23.67;16.30;;;-0.10;99.90;;;;;;6136972;23;20437;-88
2022/03/03 07:43:02;;;;;;;26.43;17.33;;;0.10;99.90;;;;;;6136554;23;20721;-88
2022/03/03 07:45:29;;;;;;;28.45;17.73;;;0.10;99.90;;;;;;6134119;23;20387;-89
2022/03/03 07:48:24;;;;;;;26.20;16.43;;;0.00;99.90;;;;;;6137858;23;20204;-88
2022/03/03 07:53:57;;;;;;;25.40;16.80;;;0.70;99.90;;;;;;6143072;23;20839;-87
2022/03/03 07:56:37;;;;;;;23.60;16.57;;;0.70;99.90;;;;;;6133608;23;20523;-87
2022/03/03 07:59:04;;;;;;;22.70;15.90;;;1.10;99.90;;;;;;6136172;23;20188;-87
2022/03/03 08:01:32;;;;;;;26.17;17.33;;;1.40;99.90;;;;;;6133695;23;20409;-87
2022/03/03 08:04:01;;;;;;;22.50;15.97;;;1.70;99.90;;;;;;6135185;23;20478;-87
2022/03/03 08:06:32;;;;;;;24.57;17.10;;;1.90;99.90;;;;;;6136358;23;20399;-87
2022/03/03 08:08:59;;;;;;;27.13;18.33;;;2.10;99.90;;;;;;6133403;23;20487;-88
2022/03/03 08:11:27;;;;;;;22.57;18.23;;;2.20;99.90;;;;;;6131785;23;20392;-89
2022/03/03 08:13:55;;;;;;;24.57;18.17;;;2.20;99.90;;;;;;6132605;23;20474;-88
2022/03/03 08:16:20;;;;;;;27.23;18.93;;;2.40;99.90;;;;;;6134259;23;20399;-90
2022/03/03 08:18:48;;;;;;;26.17;17.80;;;2.60;99.90;;;;;;6132363;23;20726;-89
2022/03/03 08:21:15;;;;;;;24.83;16.97;;;2.90;99.90;;;;;;6130760;23;20235;-88
2022/03/03 08:23:44;;;;;;;24.73;16.47;;;3.40;99.90;;;;;;6132954;23;20409;-89
2022/03/03 08:26:12;;;;;;;24.80;16.70;;;3.60;99.90;;;;;;6135212;23;20397;-88
2022/03/03 08:29:02;;;;;;;23.73;17.83;;;3.90;99.70;;;;;;6134703;23;20470;-89
2022/03/03 08:31:35;;;;;;;20.80;16.57;;;4.00;98.60;;;;;;6112274;23;20402;-89
2022/03/03 08:34:22;;;;;;;24.40;17.00;;;4.10;99.50;;;;;;6162194;23;20414;-88
2022/03/03 08:36:54;;;;;;;24.20;16.63;;;4.20;99.90;;;;;;6137699;23;20640;-87
2022/03/03 08:39:26;;;;;;;20.93;16.57;;;4.20;99.90;;;;;;6134129;23;20391;-88
2022/03/03 08:41:55;;;;;;;23.50;17.10;;;4.40;99.70;;;;;;6135536;23;20380;-88
2022/03/03 08:44:28;;;;;;;23.70;17.67;;;4.40;99.10;;;;;;6139756;23;20846;-89
2022/03/03 08:47:07;;;;;;;26.50;18.40;;;4.50;98.90;;;;;;6139647;23;20402;-88
2022/03/03 08:49:39;;;;;;;25.07;17.50;;;4.60;98.60;;;;;;6133601;23;20390;-88
2022/03/03 08:52:09;;;;;;;25.23;18.47;;;4.70;98.70;;;;;;6137008;23;20426;-89
2022/03/03 08:54:40;;;;;;;23.60;17.00;;;4.90;97.80;;;;;;6135667;23;20414;-89
2022/03/03 08:57:09;;;;;;;21.77;17.23;;;5.00;97.20;;;;;;6137098;23;20559;-88
2022/03/03 08:59:35;;;;;;;25.60;17.77;;;5.10;97.30;;;;;;6135841;23;20445;-89
2022/03/03 09:02:01;;;;;;;23.93;17.50;;;5.30;98.80;;;;;;6137344;23;20767;-89
2022/03/03 09:04:27;;;;;;;24.03;18.37;;;5.50;96.40;;;;;;6136642;23;20157;-89
2022/03/03 09:06:53;;;;;;;22.80;17.37;;;5.60;95.90;;;;;;6134549;23;20403;-89
2022/03/03 09:09:19;;;;;;;24.33;18.20;;;5.60;96.30;;;;;;6136988;23;20247;-89
2022/03/03 09:11:45;;;;;;;22.27;17.80;;;5.80;96.80;;;;;;6136072;23;20512;-89
2022/03/03 09:14:17;;;;;;;25.27;18.70;;;6.00;96.10;;;;;;6136614;23;20592;-89
2022/03/03 09:16:44;;;;;;;22.67;17.93;;;6.50;94.60;;;;;;6136892;23;20196;-89
2022/03/03 09:19:09;;;;;;;24.43;18.90;;;6.70;93.30;;;;;;6137962;23;20390;-89
2022/03/03 09:21:37;;;;;;;27.73;20.07;;;6.70;95.20;;;;;;6135774;23;20888;-89
2022/03/03 09:24:03;;;;;;;29.97;19.33;;;6.60;94.70;;;;;;6136913;23;20211;-90
2022/03/03 09:26:32;;;;;;;24.63;19.27;;;7.00;94.40;;;;;;6113825;23;20454;-90
2022/03/03 09:28:57;;;;;;;23.87;19.20;;;7.10;94.10;;;;;;6135547;23;20406;-89
2022/03/03 09:31:32;;;;;;;23.73;18.20;;;7.40;92.80;;;;;;6145417;23;20395;-89
2022/03/03 09:33:58;;;;;;;25.70;19.40;;;7.10;93.90;;;;;;6150088;23;20907;-89
2022/03/03 09:36:24;;;;;;;26.10;20.00;;;7.40;94.30;;;;;;6133430;23;20481;-90
2022/03/03 09:38:50;;;;;;;23.43;17.57;;;7.50;92.60;;;;;;6136577;23;20183;-90
2022/03/03 09:41:15;;;;;;;22.80;18.30;;;7.90;91.60;;;;;;6133361;23;20156;-87
2022/03/03 09:43:42;;;;;;;24.90;19.87;;;8.40;90.40;;;;;;6137274;23;20412;-87
2022/03/03 09:46:08;;;;;;;21.50;18.47;;;8.30;91.00;;;;;;6136032;23;20183;-88
2022/03/03 09:48:35;;;;;;;21.30;17.73;;;8.60;92.90;;;;;;6150874;23;20402;-87
2022/03/03 09:51:00;;;;;;;29.73;19.87;;;8.70;91.50;;;;;;6134285;23;20464;-88
2022/03/03 09:53:29;;;;;;;25.00;19.47;;;8.40;92.20;;;;;;6128396;23;20441;-88
2022/03/03 09:55:57;;;;;;;26.27;18.67;;;8.50;92.20;;;;;;6131265;23;20391;-85
2022/03/03 09:58:23;;;;;;;22.23;18.53;;;8.80;91.10;;;;;;6133224;23;20905;-86
2022/03/03 10:00:48;;;;;;;24.37;18.13;;;9.00;89.90;;;;;;6128942;23;20744;-87
2022/03/03 10:03:17;;;;;;;23.20;20.27;;;8.80;91.20;;;;;;6128593;23;20247;-87
2022/03/03 10:05:48;;;;;;;21.30;18.50;;;8.90;92.20;;;;;;6129886;23;20156;-87
2022/03/03 10:08:19;;;;;;;24.17;18.03;;;9.10;91.40;;;;;;6127195;23;20395;-87
2022/03/03 10:10:48;;;;;;;23.93;18.23;;;9.20;90.40;;;;;;6125867;23;20437;-88
2022/03/03 10:13:17;;;;;;;21.37;19.07;;;9.10;92.00;;;;;;6104280;23;20400;-86
2022/03/03 10:16:02;;;;;;;24.63;20.07;;;9.20;88.40;;;;;;6129955;23;20778;-88
2022/03/03 10:18:33;;;;;;;24.40;19.20;;;9.00;89.00;;;;;;6124699;23;20549;-88
2022/03/03 10:21:08;;;;;;;25.60;20.10;;;9.20;90.70;;;;;;6128800;23;20386;-88
2022/03/03 10:23:51;;;;;;;22.23;19.57;;;9.40;90.30;;;;;;6129690;23;20410;-88
2022/03/03 10:26:38;;;;;;;22.40;20.00;;;10.00;89.40;;;;;;6131709;23;20917;-87
2022/03/03 10:29:19;;;;;;;22.53;19.77;;;10.10;87.30;;;;;;6133785;23;20171;-88
2022/03/03 10:31:50;;;;;;;23.67;18.20;;;10.60;82.70;;;;;;6166110;23;20407;-88
2022/03/03 10:34:21;;;;;;;22.50;19.43;;;10.70;82.10;;;;;;6136088;23;20466;-89
2022/03/03 10:37:01;;;;;;;23.77;19.37;;;10.70;81.40;;;;;;6137178;23;20432;-87
2022/03/03 10:39:48;;;;;;;21.00;18.40;;;11.10;80.10;;;;;;6128526;23;20807;-88
2022/03/03 10:42:20;;;;;;;19.80;17.70;;;11.00;76.10;;;;;;6137098;23;20407;-90
2022/03/03 10:44:47;;;;;;;20.83;18.07;;;11.00;76.30;;;;;;6137131;23;20391;-87
2022/03/03 10:47:25;;;;;;;21.37;18.33;;;11.10;75.90;;;;;;6142856;23;20445;-89
2022/03/03 10:49:59;;;;;;;22.13;18.93;;;11.40;78.00;;;;;;6138805;23;20379;-89
2022/03/03 10:52:27;;;;;;;22.20;19.80;;;11.50;75.20;;;;;;6137673;23;20953;-89
2022/03/03 10:55:18;;;;;;;21.83;19.47;;;11.60;75.60;;;;;;6139171;23;20392;-89
2022/03/03 10:57:59;;;;;;;22.57;20.13;;;11.90;72.50;;;;;;6142571;23;20432;-89
2022/03/03 11:00:30;;;;;;;22.60;20.10;;;12.00;74.80;;;;;;6140651;23;20379;-89
2022/03/03 11:03:03;;;;;;;22.97;19.80;;;12.30;67.80;;;;;;6138307;23;20434;-88
2022/03/03 11:05:30;;;;;;;23.43;19.13;;;12.40;67.80;;;;;;6139227;23;20454;-89
2022/03/03 11:07:58;;;;;;;24.17;21.57;;;12.20;74.60;;;;;;6139928;23;20399;-89
2022/03/03 11:10:29;;;;;;;26.50;19.30;;;11.90;71.80;;;;;;6139927;23;20866;-89
2022/03/03 11:13:12;;;;;;;21.20;19.00;;;11.90;70.40;;;;;;6140131;23;20390;-89
2022/03/03 11:15:46;;;;;;;22.33;19.37;;;11.90;69.70;;;;;;6135872;23;20607;-89
2022/03/03 11:18:18;;;;;;;20.60;18.30;;;12.10;69.10;;;;;;6132875;23;20435;-89
2022/03/03 11:20:51;;;;;;;22.10;19.80;;;12.60;68.30;;;;;;6135412;23;20393;-89
2022/03/03 11:23:21;;;;;;;21.90;18.60;;;12.70;70.40;;;;;;6135025;23;21051;-89
2022/03/03 11:25:51;;;;;;;21.33;19.03;;;12.50;71.50;;;;;;6135787;23;20423;-88
2022/03/03 11:28:19;;;;;;;20.87;18.67;;;12.10;66.10;;;;;;6161293;23;20738;-89
2022/03/03 11:30:46;;;;;;;21.33;16.97;;;12.20;68.30;;;;;;6129370;23;20470;-88
2022/03/03 11:33:24;;;;;;;25.53;19.57;;;12.50;68.10;;;;;;6132048;23;20392;-88
2022/03/03 11:35:58;;;;;;;20.47;17.63;;;12.80;68.60;;;;;;6130009;23;20498;-89
2022/03/03 11:38:27;;;;;;;23.47;18.70;;;12.90;66.20;;;;;;6130502;23;20438;-89
2022/03/03 11:41:03;;;;;;;21.80;18.63;;;12.80;66.90;;;;;;6130774;23;20800;-89
2022/03/03 11:43:43;;;;;;;22.10;18.40;;;12.80;63.50;;;;;;6129936;23;20402;-89
2022/03/03 11:46:09;;;;;;;22.27;19.87;;;13.20;60.30;;;;;;6129779;23;20387;-89
2022/03/03 11:48:39;;;;;;;20.07;17.97;;;13.60;64.20;;;;;;6129319;23;20394;-89
2022/03/03 11:51:34;;;;;;;22.27;18.67;;;13.70;62.70;;;;;;6131633;23;20171;-88
2022/03/03 11:54:10;;;;;;;21.17;18.80;;;14.30;59.70;;;;;;6132680;23;20674;-88
2022/03/03 11:57:06;;;;;;;21.83;19.40;;;13.90;63.70;;;;;;6127712;23;20810;-86
2022/03/03 11:59:39;;;;;;;23.13;20.03;;;13.70;62.60;;;;;;6129972;23;20676;-89
2022/03/03 12:02:05;;;;;;;24.13;20.43;;;13.90;61.10;;;;;;6133960;23;20462;-87
2022/03/03 12:04:31;;;;;;;22.40;18.80;;;14.30;61.00;;;;;;6132400;23;20871;-87
2022/03/03 12:06:57;;;;;;;21.20;18.90;;;14.30;58.40;;;;;;6130730;23;20161;-88
2022/03/03 12:09:30;;;;;;;24.63;20.67;;;13.90;59.00;;;;;;6140050;23;20239;-87
2022/03/03 12:12:17;;;;;;;25.57;20.53;;;14.00;59.60;;;;;;6144843;23;20391;-89
2022/03/03 12:14:54;;;;;;;22.30;19.33;;;14.50;63.50;;;;;;6128552;23;20434;-90
2022/03/03 12:17:43;;;;;;;22.90;20.43;;;14.20;61.10;;;;;;6132300;23;20439;-89
2022/03/03 12:20:24;;;;;;;21.27;18.97;;;14.30;61.30;;;;;;6132243;23;20949;-91
2022/03/03 12:23:09;;;;;;;24.30;20.30;;;14.30;60.70;;;;;;6132359;23;21134;-89
2022/03/03 12:25:50;;;;;;;23.13;19.80;;;14.50;60.50;;;;;;6132015;23;20383;-90
2022/03/03 12:28:36;;;;;;;20.50;18.30;;;14.80;59.80;;;;;;6128450;23;20387;-88
2022/03/03 12:31:17;;;;;;;21.40;19.00;;;15.10;57.70;;;;;;6132758;23;20387;-89
2022/03/03 12:34:06;;;;;;;25.83;22.90;;;15.10;57.50;;;;;;6133967;23;20882;-90
2022/03/03 12:36:34;;;;;;;23.93;21.03;;;15.50;57.70;;;;;;6134203;23;20722;-89
2022/03/03 12:39:00;;;;;;;23.87;20.60;;;15.20;57.50;;;;;;6136632;23;20407;-91
2022/03/03 12:41:30;;;;;;;24.20;21.17;;;15.00;59.20;;;;;;6132504;23;20824;-89
2022/03/03 12:44:13;;;;;;;24.37;21.87;;;15.20;59.00;;;;;;6132983;23;20591;-91
2022/03/03 12:46:40;;;;;;;23.03;20.70;;;14.70;57.50;;;;;;6132925;23;20758;-91